Time;durP1;ratioP1;P1;durP2;ratioP2;P2;SDS_P1;SDS_P2;PMS_P1;PMS_P2;Temp;Humidity;BMP_temperature;BMP_pressure;BME280_temperature;BME280_humidity;BME280_pressure;Samples;Min_cycle;Max_cycle;Signal;HPM_P1;HPM_P2
2022/06/23 00:01:01;;;;;;;5.55;3.33;;;;;;;15.71;100.00;101428.47;5018782;28;20132;-28
2022/06/23 00:03:34;;;;;;;3.22;2.40;;;;;;;15.70;100.00;101421.16;4997708;28;20057;-32
2022/06/23 00:06:06;;;;;;;3.80;2.20;;;;;;;15.69;100.00;101423.16;5018519;28;20058;-28
2022/06/23 00:08:44;;;;;;;3.78;2.38;;;;;;;15.67;100.00;101417.00;4996597;28;20048;-29
2022/06/23 00:11:20;;;;;;;4.57;2.95;;;;;;;15.65;100.00;101419.31;5019529;28;20060;-31
2022/06/23 00:13:49;;;;;;;4.03;2.42;;;;;;;15.64;100.00;101425.25;4997015;28;20054;-30
2022/06/23 00:16:24;;;;;;;4.45;3.30;;;;;;;15.64;100.00;101414.00;5019058;28;20042;-32
2022/06/23 00:18:52;;;;;;;4.43;2.63;;;;;;;15.63;100.00;101424.41;4996257;28;20054;-37
2022/06/23 00:21:24;;;;;;;3.05;2.10;;;;;;;15.64;100.00;101425.25;5018421;28;20046;-29
2022/06/23 00:23:55;;;;;;;5.47;3.17;;;;;;;15.62;100.00;101416.28;5030369;28;20056;-30
2022/06/23 00:26:27;;;;;;;3.70;2.50;;;;;;;15.60;100.00;101413.78;5024931;28;20052;-30
2022/06/23 00:29:00;;;;;;;4.70;2.80;;;;;;;15.58;100.00;101406.84;5014069;28;20104;-29
2022/06/23 00:31:32;;;;;;;4.78;3.28;;;;;;;15.57;100.00;101408.84;5024023;28;20084;-31
2022/06/23 00:34:01;;;;;;;;;;;;;;;15.52;100.00;101406.13;5015191;28;20049;-28
2022/06/23 00:36:35;;;;;;;3.50;2.58;;;;;;;15.48;100.00;101411.53;5020017;28;19922;-34
2022/06/23 00:39:04;;;;;;;3.90;2.30;;;;;;;15.50;100.00;101406.44;5027974;28;20395;-29
2022/06/23 00:41:37;;;;;;;4.55;2.40;;;;;;;15.54;100.00;101402.97;5022368;28;20769;-28
2022/06/23 00:44:08;;;;;;;5.03;3.47;;;;;;;15.56;100.00;101403.53;5016330;28;20046;-28
2022/06/23 00:46:46;;;;;;;4.22;2.78;;;;;;;15.57;100.00;101397.59;5022107;28;20141;-29
2022/06/23 00:49:21;;;;;;;3.90;3.13;;;;;;;15.57;100.00;101403.22;5029433;28;20060;-28
2022/06/23 00:51:55;;;;;;;5.70;3.35;;;;;;;15.57;100.00;101397.59;5017310;28;20052;-30
2022/06/23 00:54:29;;;;;;;4.97;2.88;;;;;;;15.58;100.00;101392.78;5024447;28;20554;-32
2022/06/23 00:57:04;;;;;;;4.32;2.95;;;;;;;15.60;100.00;101396.09;5016607;28;20045;-35
2022/06/23 00:59:39;;;;;;;4.57;3.20;;;;;;;15.61;100.00;101398.59;5010410;28;20054;-31
2022/06/23 01:02:12;;;;;;;3.20;2.38;;;;;;;15.60;100.00;101391.28;5019209;28;20056;-28
2022/06/23 01:04:46;;;;;;;5.72;2.90;;;;;;;15.60;100.00;101394.09;5025514;28;20103;-35
2022/06/23 01:07:31;;;;;;;4.80;3.40;;;;;;;15.61;100.00;101390.16;5023447;28;20048;-36
2022/06/23 01:10:06;;;;;;;4.53;3.08;;;;;;;15.61;100.00;101392.13;5015516;28;20076;-30
2022/06/23 01:12:39;;;;;;;4.88;2.95;;;;;;;15.62;100.00;101399.41;5019822;28;20048;-35
2022/06/23 01:15:18;;;;;;;4.07;2.90;;;;;;;15.64;100.00;101391.50;5021417;28;20053;-30
2022/06/23 01:17:53;;;;;;;3.92;2.80;;;;;;;15.65;100.00;101399.59;5018911;28;20499;-31
2022/06/23 01:20:31;;;;;;;4.05;2.45;;;;;;;15.65;100.00;101399.59;5026230;28;20047;-34
2022/06/23 01:23:24;;;;;;;5.72;3.75;;;;;;;15.65;100.00;101395.97;5023024;28;20052;-34
2022/06/23 01:26:38;;;;;;;5.18;3.80;;;;;;;15.66;100.00;101384.41;5016450;28;20501;-28
2022/06/23 01:29:14;;;;;;;3.90;2.80;;;;;;;15.63;100.00;101382.22;5022761;28;20049;-28
2022/06/23 01:31:48;;;;;;;5.30;3.00;;;;;;;15.65;100.00;101379.91;5015989;28;20513;-34
2022/06/23 01:34:27;;;;;;;5.07;3.78;;;;;;;15.67;100.00;101382.41;5022647;28;20046;-33
2022/06/23 01:37:01;;;;;;;3.78;2.75;;;;;;;15.67;100.00;101377.63;5033218;28;20132;-29
2022/06/23 01:39:37;;;;;;;5.82;3.65;;;;;;;15.68;100.00;101381.25;5026911;28;20049;-38
2022/06/23 01:42:14;;;;;;;6.15;3.85;;;;;;;15.68;100.00;101381.25;5016967;28;20041;-30
2022/06/23 01:44:51;;;;;;;4.13;3.00;;;;;;;15.69;100.00;101380.09;5021679;28;20054;-31
2022/06/23 01:47:25;;;;;;;4.63;3.22;;;;;;;15.66;100.00;101387.22;5033618;28;20053;-29
2022/06/23 01:50:00;;;;;;;4.63;3.42;;;;;;;15.67;100.00;101379.59;5022439;28;20383;-30
2022/06/23 01:52:28;;;;;;;5.53;2.85;;;;;;;15.64;100.00;101377.41;5031877;28;20409;-29
2022/06/23 01:55:03;;;;;;;6.38;3.58;;;;;;;15.63;100.00;101378.56;5027522;28;20111;-32
2022/06/23 01:57:37;;;;;;;7.60;3.97;;;;;;;15.61;100.00;101378.06;5016435;28;20046;-33
2022/06/23 02:00:14;;;;;;;6.05;3.58;;;;;;;15.60;100.00;101377.22;5024908;28;20104;-34
2022/06/23 02:02:52;;;;;;;4.57;2.95;;;;;;;15.58;100.00;101381.53;5016398;28;20081;-30
2022/06/23 02:05:31;;;;;;;3.95;2.63;;;;;;;15.56;100.00;101383.84;5026368;28;20076;-31
2022/06/23 02:08:07;;;;;;;3.53;2.55;;;;;;;15.52;100.00;101375.16;5017182;28;20128;-32
2022/06/23 02:10:42;;;;;;;4.88;3.60;;;;;;;15.46;100.00;101374.47;5021987;28;20048;-34
2022/06/23 02:13:18;;;;;;;3.85;3.08;;;;;;;15.45;100.00;101369.97;5031499;28;20048;-36
2022/06/23 02:15:59;;;;;;;5.70;3.20;;;;;;;15.43;100.00;101371.44;5020002;28;20052;-33
2022/06/23 02:18:33;;;;;;;5.15;3.55;;;;;;;15.40;100.00;101372.09;5017852;28;20392;-31
2022/06/23 02:21:20;;;;;;;4.82;3.55;;;;;;;15.40;100.00;101370.09;5025922;28;20133;-30
2022/06/23 02:23:53;;;;;;;5.38;2.97;;;;;;;15.36;100.00;101368.28;5017355;28;20055;-28
2022/06/23 02:26:25;;;;;;;4.15;2.88;;;;;;;15.33;100.00;101375.34;5022961;28;20038;-29
2022/06/23 02:28:58;;;;;;;;;;;;;;;15.27;100.00;101378.59;5030513;28;20471;-28
2022/06/23 02:31:37;;;;;;;3.38;2.33;;;;;;;15.23;100.00;101374.75;5022241;28;20305;-29
2022/06/23 02:34:12;;;;;;;4.97;3.28;;;;;;;15.22;100.00;101373.09;5029191;28;20045;-34
2022/06/23 02:37:02;;;;;;;4.72;3.20;;;;;;;15.22;100.00;101376.75;5021862;28;20480;-30
2022/06/23 02:39:36;;;;;;;5.93;3.53;;;;;;;15.17;100.00;101379.69;5029149;28;20048;-30
2022/06/23 02:42:17;;;;;;;3.80;2.35;;;;;;;15.15;100.00;101376.38;5024603;28;20046;-31
2022/06/23 02:45:03;;;;;;;4.43;2.67;;;;;;;15.12;100.00;101377.00;5019094;28;20053;-33
2022/06/23 02:47:49;;;;;;;3.13;2.55;;;;;;;15.07;100.00;101372.31;5012208;28;20398;-30
2022/06/23 02:50:43;;;;;;;4.18;2.38;;;;;;;15.03;100.00;101365.66;5025506;28;20050;-29
2022/06/23 02:53:37;;;;;;;2.90;2.03;;;;;;;14.99;100.00;101352.56;5021069;28;20061;-31
2022/06/23 02:56:23;;;;;;;5.32;2.60;;;;;;;14.95;100.00;101360.81;5020915;28;20099;-31
2022/06/23 02:58:56;;;;;;;4.50;2.50;;;;;;;14.91;100.00;101373.00;5030411;28;20087;-28
2022/06/23 03:01:29;;;;;;;5.20;3.60;;;;;;;14.88;100.00;101374.44;5021190;28;20115;-29
2022/06/23 03:04:03;;;;;;;3.88;2.80;;;;;;;14.87;100.00;101367.16;5029443;28;20081;-28
2022/06/23 03:06:38;;;;;;;4.68;3.30;;;;;;;14.85;100.00;101368.63;5025070;28;20042;-28
2022/06/23 03:09:10;;;;;;;4.13;2.83;;;;;;;14.79;100.00;101376.34;5015272;28;20119;-28
2022/06/23 03:11:52;;;;;;;4.03;2.28;;;;;;;14.76;100.00;101375.00;5021171;28;20045;-30
2022/06/23 03:14:30;;;;;;;4.75;3.88;;;;;;;14.73;100.00;101367.22;5022005;28;20123;-29
2022/06/23 03:17:04;;;;;;;4.10;2.85;;;;;;;14.70;100.00;101359.41;5021921;28;20116;-29
2022/06/23 03:19:38;;;;;;;4.10;2.70;;;;;;;14.68;100.00;101358.88;5012051;28;20571;-30
2022/06/23 03:22:14;;;;;;;4.47;2.40;;;;;;;14.66;100.00;101351.91;5019798;28;20125;-28
2022/06/23 03:24:50;;;;;;;4.50;3.17;;;;;;;14.62;100.00;101364.91;5029355;28;20517;-28
2022/06/23 03:27:25;;;;;;;4.07;2.70;;;;;;;14.61;100.00;101352.03;5023828;28;20099;-29
2022/06/23 03:30:00;;;;;;;3.08;2.17;;;;;;;14.59;100.00;101359.97;5015242;28;20061;-28
2022/06/23 03:32:32;;;;;;;2.80;2.17;;;;;;;14.56;100.00;101360.59;5023503;28;20052;-29
2022/06/23 03:35:18;;;;;;;5.25;3.42;;;;;;;14.53;100.00;101362.03;5016504;28;20402;-29
2022/06/23 03:37:57;;;;;;;3.80;2.45;;;;;;;14.51;100.00;101352.25;5025176;28;20055;-28
2022/06/23 03:43:27;;;;;;;5.53;3.95;;;;;;;14.48;100.00;101342.47;5019225;28;20038;-31
2022/06/23 03:46:00;;;;;;;5.57;4.13;;;;;;;14.49;100.00;101346.94;4997582;28;20077;-28
2022/06/23 03:48:33;;;;;;;6.28;4.03;;;;;;;14.50;100.00;101357.03;5018383;28;20048;-30
2022/06/23 03:51:11;;;;;;;4.90;2.95;;;;;;;14.52;100.00;101356.72;4996847;28;20084;-28
2022/06/23 03:53:48;;;;;;;5.15;2.75;;;;;;;14.51;100.00;101364.31;5019605;28;20450;-28
2022/06/23 03:56:19;;;;;;;4.53;3.00;;;;;;;14.51;100.00;101355.91;4998136;28;20054;-29
2022/06/23 03:58:55;;;;;;;5.18;3.92;;;;;;;14.52;100.00;101349.13;5018836;28;20046;-29
2022/06/23 04:01:31;;;;;;;5.97;3.42;;;;;;;14.52;100.00;101351.09;4997779;28;20042;-29
2022/06/23 04:04:04;;;;;;;6.45;3.35;;;;;;;14.51;100.00;101336.25;5019180;28;20046;-28
2022/06/23 04:06:36;;;;;;;4.95;3.53;;;;;;;14.52;100.00;101335.09;4996769;28;20085;-28
2022/06/23 04:09:11;;;;;;;3.30;2.60;;;;;;;14.54;100.00;101346.84;5019633;28;20049;-28
2022/06/23 04:11:58;;;;;;;4.15;2.95;;;;;;;14.56;100.00;101343.72;4996795;28;20050;-30
2022/06/23 04:14:38;;;;;;;3.88;2.65;;;;;;;14.55;100.00;101337.28;5032123;28;20335;-29
2022/06/23 04:17:12;;;;;;;6.38;4.13;;;;;;;14.56;100.00;101336.13;5030400;28;20054;-28
2022/06/23 04:19:44;;;;;;;5.32;3.42;;;;;;;14.59;100.00;101331.88;5022135;28;20084;-29
2022/06/23 04:22:17;;;;;;;5.20;3.17;;;;;;;14.61;100.00;101330.38;5013919;28;20049;-29
2022/06/23 04:24:47;;;;;;;4.22;2.60;;;;;;;14.63;100.00;101336.50;5019083;28;20050;-30
2022/06/23 04:27:21;;;;;;;5.13;2.97;;;;;;;14.67;100.00;101334.75;5030167;28;20046;-30
2022/06/23 04:29:52;;;;;;;3.35;2.58;;;;;;;14.69;100.00;101340.88;5025385;28;20206;-29
2022/06/23 04:32:24;;;;;;;4.60;3.38;;;;;;;14.71;100.00;101330.16;4996649;28;20060;-29
2022/06/23 04:34:58;;;;;;;5.70;4.15;;;;;;;14.74;100.00;101328.72;5017951;28;20042;-32
2022/06/23 04:37:35;;;;;;;7.43;4.22;;;;;;;14.78;100.00;101316.53;5030151;28;20049;-35
2022/06/23 04:40:15;;;;;;;8.48;5.13;;;;;;;14.83;100.00;101319.19;5016951;28;20402;-35
2022/06/23 04:42:51;;;;;;;4.47;3.40;;;;;;;14.91;100.00;101312.00;4996328;28;21512;-28
2022/06/23 04:45:38;;;;;;;7.55;4.03;;;;;;;14.97;100.00;101322.00;5017831;28;20411;-27
2022/06/23 04:48:15;;;;;;;7.57;3.88;;;;;;;15.01;100.00;101313.72;4996860;28;20159;-32
2022/06/23 04:50:48;;;;;;;4.30;3.00;;;;;;;15.08;100.00;101311.31;5022469;28;20556;-34
2022/06/23 04:53:25;;;;;;;6.13;4.15;;;;;;;15.14;100.00;101305.25;5013357;28;20049;-35
2022/06/23 04:56:18;;;;;;;9.95;4.82;;;;;;;15.25;100.00;101310.59;5014229;28;20062;-36
2022/06/23 04:58:52;;;;;;;7.78;4.35;;;;;;;15.28;100.00;101309.97;5014819;28;20058;-31
2022/06/23 05:01:23;;;;;;;7.03;4.90;;;;;;;15.36;100.00;101306.41;5025549;28;20136;-35
2022/06/23 05:03:55;;;;;;;6.72;4.60;;;;;;;15.43;100.00;101313.22;5015429;28;20046;-33
2022/06/23 05:06:33;;;;;;;;;;;;;;;15.46;100.00;101312.59;5019901;28;20519;-33
2022/06/23 05:09:06;;;;;;;6.72;4.13;;;;;;;15.49;100.00;101317.56;5016299;28;19968;-35
2022/06/23 05:11:40;;;;;;;9.75;4.57;;;;;;;15.60;100.00;101314.50;5022028;28;20518;-30
2022/06/23 05:14:16;;;;;;;6.63;3.97;;;;;;;15.67;100.00;101310.09;5029939;28;20046;-36
2022/06/23 05:16:48;;;;;;;7.38;4.40;;;;;;;15.73;100.00;101317.25;5020982;28;20128;-34
2022/06/23 05:19:22;;;;;;;6.35;3.95;;;;;;;15.82;100.00;101311.66;5033416;28;20124;-29
2022/06/23 05:21:54;;;;;;;6.88;4.43;;;;;;;15.91;100.00;101303.25;5026937;28;20080;-31
2022/06/23 05:24:26;;;;;;;6.78;4.22;;;;;;;15.98;100.00;101304.47;5015403;28;20057;-38
2022/06/23 05:26:57;;;;;;;7.50;4.45;;;;;;;16.06;100.00;101303.66;5025184;28;20053;-29
2022/06/23 05:29:30;;;;;;;5.43;3.88;;;;;;;16.16;100.00;101299.72;5015028;28;20558;-37
2022/06/23 05:32:02;;;;;;;6.97;4.07;;;;;;;16.26;100.00;101302.22;5020730;28;20050;-33
2022/06/23 05:34:33;;;;;;;6.43;3.95;;;;;;;16.32;100.00;101308.53;5032807;28;20402;-32
2022/06/23 05:37:14;;;;;;;6.22;4.18;;;;;;;16.39;100.00;101298.44;5026979;28;20053;-31
2022/06/23 05:39:48;;;;;;;7.07;3.80;;;;;;;16.43;100.00;101295.81;5000632;28;20405;-32
2022/06/23 05:42:22;;;;;;;7.38;4.68;;;;;;;16.49;100.00;101289.69;5021826;28;20346;-30
2022/06/23 05:44:53;;;;;;;7.88;5.10;;;;;;;16.55;100.00;101290.38;4998390;28;20070;-32
2022/06/23 05:47:21;;;;;;;8.40;5.03;;;;;;;16.62;100.00;101282.25;5019861;28;20461;-32
2022/06/23 05:49:57;;;;;;;6.53;4.22;;;;;;;16.69;100.00;101273.34;5029649;28;20100;-33
2022/06/23 05:52:32;;;;;;;6.78;4.18;;;;;;;16.76;100.00;101277.34;5018206;28;20444;-28
2022/06/23 05:55:13;;;;;;;8.18;4.53;;;;;;;16.85;100.00;101277.31;5033408;28;20073;-33
2022/06/23 05:57:48;;;;;;;7.43;3.50;;;;;;;16.94;100.00;101268.88;5027388;28;20073;-28
2022/06/23 06:00:22;;;;;;;5.70;3.50;;;;;;;17.02;100.00;101280.13;4999160;28;20502;-35
2022/06/23 06:02:57;;;;;;;5.95;4.20;;;;;;;17.12;100.00;101284.63;5021760;28;20050;-30
2022/06/23 06:05:28;;;;;;;5.85;4.38;;;;;;;17.20;100.00;101281.78;5015458;28;20081;-31
2022/06/23 06:07:57;;;;;;;5.00;3.28;;;;;;;17.31;100.00;101287.09;5021723;28;20070;-32
2022/06/23 06:10:28;;;;;;;4.38;3.47;;;;;;;17.43;100.00;101295.69;5032428;28;20048;-32
2022/06/23 06:12:57;;;;;;;5.75;3.60;;;;;;;17.54;100.00;101285.72;5026846;28;20045;-31
2022/06/23 06:15:29;;;;;;;6.47;4.20;;;;;;;17.68;100.00;101282.72;5021623;28;20042;-31
2022/06/23 06:18:07;;;;;;;7.57;4.60;;;;;;;17.81;100.00;101267.53;5022322;28;20482;-27
2022/06/23 06:20:37;;;;;;;7.82;4.68;;;;;;;17.93;100.00;101275.31;5031344;28;20132;-35
2022/06/23 06:23:10;;;;;;;5.85;3.58;;;;;;;18.07;100.00;101261.78;5022300;28;20038;-34
2022/06/23 06:25:47;;;;;;;6.63;4.13;;;;;;;18.24;100.00;101261.69;5030056;28;20053;-31
2022/06/23 06:28:18;;;;;;;7.25;4.25;;;;;;;18.40;100.00;101268.41;5025991;28;20041;-32
2022/06/23 06:30:54;;;;;;;6.88;3.90;;;;;;;18.56;100.00;101254.50;5018535;28;20050;-33
2022/06/23 06:33:41;;;;;;;6.32;4.18;;;;;;;18.80;100.00;101257.50;5021438;28;20137;-30
2022/06/23 06:36:28;;;;;;;6.25;3.53;;;;;;;19.15;100.00;101268.53;5032029;28;20057;-27
2022/06/23 06:39:01;;;;;;;7.90;4.40;;;;;;;19.56;100.00;101274.13;5027038;28;20041;-28
2022/06/23 06:41:31;;;;;;;4.47;3.03;;;;;;;20.00;100.00;101284.91;5015230;28;20065;-32
2022/06/23 06:44:01;;;;;;;4.07;3.47;;;;;;;20.53;100.00;101281.06;5019587;28;20562;-27
2022/06/23 06:46:30;;;;;;;5.22;3.55;;;;;;;21.14;100.00;101273.22;5031474;28;20144;-28
2022/06/23 06:49:00;;;;;;;4.97;3.28;;;;;;;21.75;100.00;101272.91;5020653;28;20506;-28
2022/06/23 06:51:29;;;;;;;4.53;3.28;;;;;;;22.33;100.00;101264.66;5029980;28;20060;-29
2022/06/23 06:54:01;;;;;;;5.47;3.72;;;;;;;22.94;100.00;101266.91;5024603;28;20568;-29
2022/06/23 06:56:40;;;;;;;6.70;3.40;;;;;;;23.40;100.00;101276.41;5019281;28;20058;-28
2022/06/23 06:59:15;;;;;;;4.70;3.00;;;;;;;23.49;95.11;101274.16;5021312;28;20506;-35
2022/06/23 07:01:46;;;;;;;6.68;2.92;;;;;;;23.59;95.16;101279.25;5028811;28;20048;-29
2022/06/23 07:04:21;;;;;;;4.85;3.00;;;;;;;24.21;95.28;101279.97;5025373;28;20050;-32
2022/06/23 07:06:55;;;;;;;4.80;2.72;;;;;;;24.91;91.86;101287.19;5019257;28;20120;-34
2022/06/23 07:09:29;;;;;;;4.63;2.80;;;;;;;25.57;84.42;101271.31;5020535;28;20096;-29
2022/06/23 07:12:04;;;;;;;4.13;2.47;;;;;;;26.02;82.63;101261.56;5028193;28;20445;-36
2022/06/23 07:14:42;;;;;;;6.40;3.10;;;;;;;26.55;76.84;101264.06;5025151;28;20048;-30
2022/06/23 07:17:18;;;;;;;4.20;2.58;;;;;;;26.86;71.50;101277.75;5015141;28;20133;-30
2022/06/23 07:19:53;;;;;;;3.20;2.00;;;;;;;26.92;71.25;101270.44;5020955;28;20614;-35
2022/06/23 07:22:25;;;;;;;4.68;2.92;;;;;;;26.84;67.34;101271.59;5026833;28;20084;-30
2022/06/23 07:25:00;;;;;;;6.22;3.00;;;;;;;26.83;66.55;101269.94;5025168;28;20061;-30
2022/06/23 07:27:37;;;;;;;4.50;2.60;;;;;;;27.03;66.69;101268.44;5018996;28;20137;-39
2022/06/23 07:30:08;;;;;;;6.20;2.80;;;;;;;27.51;64.64;101270.28;5020044;28;20050;-32
2022/06/23 07:32:44;;;;;;;4.05;2.65;;;;;;;27.82;61.16;101275.28;5027457;28;20111;-31
2022/06/23 07:35:23;;;;;;;4.38;2.40;;;;;;;28.10;60.53;101268.75;5024835;28;20045;-33
2022/06/23 07:37:59;;;;;;;5.18;2.50;;;;;;;28.50;59.23;101263.84;5017805;28;20049;-36
2022/06/23 07:40:31;;;;;;;4.43;2.15;;;;;;;28.94;57.79;101267.06;5021123;28;20203;-33
2022/06/23 07:43:07;;;;;;;4.60;2.63;;;;;;;29.50;54.69;101255.75;5027274;28;20561;-32
2022/06/23 07:45:40;;;;;;;4.78;2.35;;;;;;;29.97;52.58;101257.09;5024660;28;20048;-32
2022/06/23 07:48:08;;;;;;;4.25;2.63;;;;;;;30.31;50.24;101254.34;5017339;28;20060;-32
2022/06/23 07:50:36;;;;;;;3.92;2.17;;;;;;;30.52;48.96;101259.09;5019738;28;20042;-38
2022/06/23 07:53:07;;;;;;;4.53;2.58;;;;;;;30.82;47.45;101259.19;5024923;28;20056;-38
2022/06/23 07:55:41;;;;;;;4.47;2.60;;;;;;;30.83;47.16;101264.53;5023244;28;20531;-35
2022/06/23 07:58:20;;;;;;;3.40;2.03;;;;;;;31.01;46.14;101264.31;5019974;28;20042;-43
2022/06/23 08:00:52;;;;;;;3.50;2.40;;;;;;;31.20;44.34;101264.94;5020180;28;20511;-33
2022/06/23 08:03:28;;;;;;;4.57;2.30;;;;;;;31.36;42.70;101273.81;5024097;28;20099;-36
2022/06/23 08:06:01;;;;;;;4.18;2.28;;;;;;;31.09;43.07;101263.00;5023680;28;20456;-32
2022/06/23 08:08:32;;;;;;;4.03;2.42;;;;;;;31.01;42.49;101275.03;5021302;28;20145;-38
2022/06/23 08:13:56;;;;;;;3.17;1.83;;;;;;;30.72;43.02;101263.03;5021033;28;20053;-36
2022/06/23 08:19:16;;;;;;;4.82;2.05;;;;;;;31.36;41.54;101250.75;5026169;28;20087;-29
2022/06/23 08:21:48;;;;;;;3.20;1.83;;;;;;;31.76;41.41;101246.06;5023756;28;20137;-30
2022/06/23 08:24:19;;;;;;;5.15;2.17;;;;;;;31.98;36.98;101249.41;5018707;28;20054;-29
2022/06/23 08:26:48;;;;;;;;;;;;;;;31.69;36.49;101238.31;5019618;28;20665;-29
2022/06/23 08:29:23;;;;;;;4.43;2.22;;;;;;;31.71;39.40;101235.81;5024483;28;20087;-29
2022/06/23 08:31:50;;;;;;;3.10;1.95;;;;;;;31.90;38.24;101233.47;5023735;28;20360;-29
2022/06/23 08:34:29;;;;;;;4.22;1.90;;;;;;;31.99;37.05;101225.88;5018980;28;20553;-30
2022/06/23 08:37:00;;;;;;;4.43;1.80;;;;;;;32.20;38.29;101227.59;5019569;28;20037;-30
2022/06/23 08:39:33;;;;;;;5.75;2.13;;;;;;;32.45;37.47;101212.72;5022476;28;20042;-31
2022/06/23 08:42:09;;;;;;;4.00;2.50;;;;;;;32.62;35.30;101205.78;5023665;28;20048;-31
2022/06/23 08:44:45;;;;;;;3.15;1.95;;;;;;;32.65;36.43;101207.78;5021441;28;20042;-35
2022/06/23 08:47:21;;;;;;;5.22;2.10;;;;;;;33.18;36.63;101208.75;5018686;28;20045;-37
2022/06/23 08:49:55;;;;;;;4.10;1.98;;;;;;;33.47;36.14;101214.75;5023247;28;20454;-30
2022/06/23 08:52:31;;;;;;;3.83;2.10;;;;;;;33.48;35.65;101217.22;5023721;28;20068;-38
2022/06/23 08:55:03;;;;;;;3.83;2.17;;;;;;;33.63;36.20;101219.75;5020387;28;20128;-39
2022/06/23 08:57:37;;;;;;;3.00;2.03;;;;;;;34.12;35.52;101212.78;5019559;28;20038;-29
2022/06/23 09:00:11;;;;;;;3.40;1.98;;;;;;;34.58;33.99;101215.69;5022368;28;20068;-30
2022/06/23 09:02:47;;;;;;;3.10;2.20;;;;;;;34.62;34.46;101207.72;5022814;28;20490;-37
2022/06/23 09:05:34;;;;;;;4.13;2.92;;;;;;;34.76;35.32;101204.44;5015688;28;20132;-34
2022/06/23 09:08:09;;;;;;;4.20;2.20;;;;;;;34.96;35.04;101210.91;5022481;28;20042;-36
2022/06/23 09:10:44;;;;;;;4.63;2.90;;;;;;;35.22;33.60;101200.97;5020211;28;20057;-31
2022/06/23 09:13:31;;;;;;;4.50;2.40;;;;;;;35.30;33.45;101192.09;5019583;28;20137;-40
2022/06/23 09:16:18;;;;;;;4.45;2.58;;;;;;;35.42;31.09;101199.97;5010404;28;20200;-33
2022/06/23 09:19:13;;;;;;;4.07;2.42;;;;;;;35.30;32.24;101195.00;5019682;28;20108;-41
2022/06/23 09:21:56;;;;;;;5.25;2.80;;;;;;;35.31;32.04;101190.81;5028788;28;20041;-30
2022/06/23 09:24:55;;;;;;;4.82;2.70;;;;;;;35.29;31.38;101187.56;5015166;28;20053;-35
2022/06/23 09:27:44;;;;;;;3.78;2.17;;;;;;;35.46;32.30;101183.28;4996377;28;20059;-31
2022/06/23 09:30:18;;;;;;;3.03;1.63;;;;;;;35.70;32.50;101184.56;5020225;28;20467;-32
2022/06/23 09:33:18;;;;;;;3.75;1.80;;;;;;;36.06;31.67;101183.38;5013323;28;20121;-37
2022/06/23 09:36:05;;;;;;;4.38;2.13;;;;;;;36.04;31.60;101180.94;5019369;28;20056;-39
2022/06/23 09:38:55;;;;;;;2.20;1.73;;;;;;;35.91;32.19;101194.66;5016742;28;20060;-32
2022/06/23 09:41:44;;;;;;;3.50;2.10;;;;;;;35.64;32.71;101186.41;5010979;28;20037;-39
2022/06/23 09:44:37;;;;;;;3.53;2.50;;;;;;;35.50;32.94;101189.78;5022260;28;20499;-30
2022/06/23 09:47:50;;;;;;;3.58;2.40;;;;;;;35.61;32.10;101187.31;5020321;28;20045;-31
2022/06/23 09:50:42;;;;;;;3.15;2.40;;;;;;;35.43;33.25;101187.09;4972907;28;20412;-31
2022/06/23 09:53:25;;;;;;;3.92;2.28;;;;;;;35.37;33.71;101186.88;4995892;28;20103;-36
2022/06/23 09:56:32;;;;;;;3.75;2.60;;;;;;;35.51;33.80;101176.91;5025294;28;20056;-31
2022/06/23 09:59:31;;;;;;;3.38;2.75;;;;;;;35.42;32.60;101180.47;5018323;28;20414;-32
2022/06/23 10:02:10;;;;;;;4.77;3.10;;;;;;;35.22;33.88;101177.75;5020437;28;20060;-31
2022/06/23 10:04:52;;;;;;;3.45;2.78;;;;;;;35.11;34.05;101170.66;5026546;28;20426;-30
2022/06/23 10:07:48;;;;;;;4.07;2.83;;;;;;;34.78;33.64;101175.78;5015980;28;20515;-37
2022/06/23 10:10:27;;;;;;;3.40;2.65;;;;;;;34.51;35.64;101159.56;5026317;28;20513;-29
2022/06/23 10:13:19;;;;;;;4.57;3.38;;;;;;;34.53;34.65;101165.72;5020173;28;20412;-35
2022/06/23 10:16:04;;;;;;;6.50;4.25;;;;;;;34.32;34.44;101159.72;5026403;28;20041;-38
2022/06/23 10:18:51;;;;;;;4.10;2.97;;;;;;;34.09;34.58;101155.72;5033921;28;20084;-30
2022/06/23 10:21:32;;;;;;;5.40;3.72;;;;;;;33.80;35.02;101167.25;5018343;28;20046;-31
2022/06/23 10:24:42;;;;;;;3.65;3.28;;;;;;;33.33;34.86;101160.13;5032969;28;20144;-32
2022/06/23 10:27:45;;;;;;;4.55;3.30;;;;;;;32.99;35.93;101161.25;5021211;28;20049;-33
2022/06/23 10:30:23;;;;;;;4.85;3.78;;;;;;;32.76;37.03;101162.19;5029117;28;20388;-31
2022/06/23 10:33:29;;;;;;;4.05;3.33;;;;;;;32.37;38.07;101159.25;5012115;28;20465;-30
2022/06/23 10:36:16;;;;;;;3.55;2.70;;;;;;;32.25;38.36;101157.78;5025725;28;20049;-34
2022/06/23 10:38:56;;;;;;;4.95;3.47;;;;;;;32.13;39.03;101161.31;5020901;28;20498;-33
2022/06/23 10:41:44;;;;;;;5.20;2.97;;;;;;;32.03;39.15;101151.56;5021739;28;20054;-32
2022/06/23 10:44:30;;;;;;;4.60;3.33;;;;;;;31.96;39.40;101156.66;5030197;28;20550;-31
2022/06/23 10:47:11;;;;;;;6.35;4.50;;;;;;;31.88;38.63;101155.16;5024374;28;20053;-34
2022/06/23 10:49:54;;;;;;;5.40;4.10;;;;;;;31.80;39.75;101140.84;5016193;28;20128;-39
2022/06/23 10:52:37;;;;;;;5.28;3.83;;;;;;;31.97;39.98;101147.56;5017602;28;20042;-32
2022/06/23 10:55:17;;;;;;;6.35;3.20;;;;;;;32.29;39.71;101141.22;4997524;28;20053;-31
2022/06/23 10:58:05;;;;;;;4.30;3.42;;;;;;;32.45;39.14;101129.75;5020319;28;20046;-34
2022/06/23 11:00:39;;;;;;;5.80;4.03;;;;;;;32.67;38.24;101133.00;4999424;28;20073;-31
2022/06/23 11:03:27;;;;;;;3.45;2.55;;;;;;;32.79;37.91;101140.22;5024398;28;20481;-42
2022/06/23 11:06:20;;;;;;;4.65;3.03;;;;;;;32.96;37.99;101136.16;5016815;28;20162;-30
2022/06/23 11:09:17;;;;;;;5.38;3.13;;;;;;;33.21;38.06;101121.91;5020868;28;20053;-30
2022/06/23 11:11:55;;;;;;;5.68;3.20;;;;;;;33.49;38.01;101125.41;5018418;28;20096;-40
2022/06/23 11:14:43;;;;;;;6.32;4.07;;;;;;;33.69;36.88;101108.78;5002225;28;20048;-29
2022/06/23 11:17:20;;;;;;;4.82;3.13;;;;;;;33.82;36.38;101109.69;5020200;28;20049;-34
2022/06/23 11:20:01;;;;;;;3.97;2.47;;;;;;;33.95;36.16;101103.19;5022809;28;20057;-33
2022/06/23 11:22:38;;;;;;;4.13;2.92;;;;;;;33.83;35.78;101114.22;5020421;28;20049;-34
2022/06/23 11:25:19;;;;;;;4.90;2.70;;;;;;;33.91;35.83;101111.97;5025395;28;20140;-40
2022/06/23 11:27:59;;;;;;;4.32;2.35;;;;;;;34.09;34.50;101106.50;5024728;28;20053;-34
2022/06/23 11:30:43;;;;;;;4.40;2.90;;;;;;;34.19;32.93;101104.56;5019430;28;20081;-31
2022/06/23 11:33:37;;;;;;;5.32;2.90;;;;;;;34.05;32.49;101104.97;5020836;28;20053;-29
2022/06/23 11:36:38;;;;;;;4.38;2.70;;;;;;;33.54;32.85;101095.94;5012769;28;20046;-40
2022/06/23 11:39:33;;;;;;;3.20;1.98;;;;;;;33.43;34.62;101098.28;5011914;28;20049;-30
2022/06/23 11:42:13;;;;;;;5.30;2.95;;;;;;;33.68;32.76;101077.38;5000408;28;20395;-34
2022/06/23 11:44:54;;;;;;;3.40;2.53;;;;;;;33.90;33.87;101083.44;5025004;28;20057;-30
2022/06/23 11:47:34;;;;;;;5.72;3.40;;;;;;;34.06;34.36;101083.41;5015510;28;20064;-30
2022/06/23 11:50:10;;;;;;;4.15;2.17;;;;;;;34.15;34.78;101083.59;5019347;28;20045;-36
2022/06/23 11:52:51;;;;;;;4.90;2.90;;;;;;;34.26;34.65;101075.38;5027830;28;20076;-30
2022/06/23 11:55:31;;;;;;;3.53;1.95;;;;;;;34.42;33.29;101072.47;5020930;28;20069;-30
2022/06/23 11:58:18;;;;;;;3.65;2.08;;;;;;;34.47;31.04;101080.59;5016244;28;20133;-34
2022/06/23 12:01:00;;;;;;;3.08;2.33;;;;;;;34.47;32.96;101069.00;5022422;28;20498;-39
2022/06/23 12:03:43;;;;;;;5.18;2.75;;;;;;;34.19;31.07;101081.38;5018107;28;20042;-32
2022/06/23 12:06:23;;;;;;;3.03;2.00;;;;;;;34.03;32.88;101075.63;5012218;28;20057;-35
2022/06/23 12:09:00;;;;;;;5.50;2.25;;;;;;;33.93;31.33;101076.75;5023929;28;20041;-39
2022/06/23 12:11:31;;;;;;;3.67;2.10;;;;;;;33.97;32.96;101071.69;5012820;28;20073;-31
2022/06/23 12:14:02;;;;;;;4.95;2.40;;;;;;;34.11;32.71;101060.50;5024660;28;20117;-37
2022/06/23 12:16:32;;;;;;;5.00;2.60;;;;;;;34.28;32.35;101066.25;5002659;28;20038;-40
2022/06/23 12:19:06;;;;;;;3.92;2.55;;;;;;;34.37;31.87;101052.75;5017975;28;20066;-31